Pgc Ikaros — C6TN6 — position and weather

sailwx.info

Track history (hours):
 
Tides and Currents Weather Stations Pressure Air Temp Water Temp Dewpoint Dewpoint Depression Visibility Wind Speed Wind Dir Waves Ship Positions

Pgc Ikaros

Last reported at 2018-Jan-09 16:09 UTC. Time now 2018-Jan-22 22:21 UTC.
Position N 16°15' W 062°46'.
Warning: this ship's position is 13 days out of date.

Length 228 m; draft 11.3 m.

Type: Tanker. MMSI: 311707000.

Date/timePositionNaut miles runAvg speedWind from/ knotsBaromVisibWave heightAir tempDewpointWater temp
2018-Jan-09 16:09N 16°15' W 062°46'414.9
2018-Jan-09 15:54N 16°16' W 062°42'614.6
2018-Jan-09 15:31N 16°19' W 062°37'1114.3
2018-Jan-09 14:43N 16°23' W 062°26'414.6
2018-Jan-09 14:28N 16°24' W 062°22'714.3
2018-Jan-09 14:00N 16°27' W 062°16'714.2
2018-Jan-09 13:31N 16°29' W 062°09'713.7
2018-Jan-09 13:00N 16°32' W 062°02'713.7
2018-Jan-09 12:30N 16°34' W 061°56'713.6
2018-Jan-09 12:00N 16°37' W 061°49'713.5
2018-Jan-09 11:30N 16°39' W 061°43'713.5
2018-Jan-09 11:00N 16°42' W 061°36'713.6
2018-Jan-09 10:30N 16°46' W 061°30'713.7
2018-Jan-09 10:00N 16°50' W 061°25'713.7
2018-Jan-09 09:30N 16°55' W 061°19'713.7
2018-Jan-09 09:00N 16°59' W 061°13'713.7
2018-Jan-09 08:30N 17°03' W 061°08'713.9
2018-Jan-09 08:00N 17°07' W 061°02'  
2018-Jan-03 03:06N 37°13' W 030°19'113.2
2018-Jan-03 03:00N 37°14' W 030°18'1113.5
2018-Jan-03 02:12N 37°20' W 030°06'613.8
2018-Jan-03 01:44N 37°23' W 029°60'413.9
2018-Jan-03 01:24N 37°26' W 029°55'513.6
2018-Jan-03 01:00N 37°29' W 029°49'713.8
2018-Jan-03 00:30N 37°33' W 029°42'713.4
2018-Jan-03 00:00N 37°37' W 029°36'713.5
2018-Jan-02 23:30N 37°41' W 029°29'713.4
2018-Jan-02 23:00N 37°45' W 029°22'713.2
2018-Jan-02 22:30N 37°49' W 029°15'613.0
2018-Jan-02 22:01N 37°53' W 029°08'713.6
2018-Jan-02 21:31N 37°57' W 029°01'713.9
2018-Jan-02 21:00N 38°01' W 028°54'713.6
2018-Jan-02 20:30N 38°05' W 028°47'713.5
2018-Jan-02 20:00N 38°08' W 028°40'713.7
2018-Jan-02 19:30N 38°11' W 028°32'713.7
2018-Jan-02 19:00N 38°15' W 028°24'713.8
2018-Jan-02 18:30N 38°17' W 028°16'713.8
2018-Jan-02 18:00N 38°19' W 028°08'714.0
2018-Jan-02 17:30N 38°21' W 027°59'714.1
2018-Jan-02 17:00N 38°23' W 027°51'713.9
2018-Jan-02 16:31N 38°25' W 027°42'714.0
2018-Jan-02 16:00N 38°26' W 027°33'713.8
2018-Jan-02 15:30N 38°28' W 027°25'713.7
2018-Jan-02 15:00N 38°29' W 027°16'713.4
2018-Jan-02 14:30N 38°31' W 027°08'713.3
2018-Jan-02 14:01N 38°32' W 026°59'713.0
2018-Jan-02 13:30N 38°34' W 026°51'713.2
2018-Jan-02 12:59N 38°36' W 026°43'613.4
2018-Jan-02 12:30N 38°38' W 026°35'713.2
2018-Jan-02 12:01N 38°40' W 026°27'713.5
2018-Jan-02 11:30N 38°42' W 026°19'814.0
2018-Jan-02 10:55N 38°44' W 026°09'613.7
2018-Jan-02 10:30N 38°45' W 026°02'713.4
2018-Jan-02 10:00N 38°47' W 025°53'613.1
2018-Jan-02 09:31N 38°49' W 025°45'1312.9
2018-Jan-02 08:31N 38°52' W 025°29'813.1
2018-Jan-02 07:53N 38°55' W 025°19'  
Track history (hours):
 
Tides and Currents Weather Stations Pressure Air Temp Water Temp Dewpoint Dewpoint Depression Visibility Wind Speed Wind Dir Waves Ship Positions

Pgc Ikaros

Last reported at 2018-Jan-09 16:09 UTC. Time now 2018-Jan-22 22:21 UTC.
Position N 16°15' W 062°46'.
Warning: this ship's position is 13 days out of date.

Length 228 m; draft 11.3 m.

Type: Tanker. MMSI: 311707000.

Date/timePositionNaut miles runAvg speedWind from/ knotsBaromVisibWave heightAir tempDewpointWater temp
2018-Jan-09 16:09N 16°15' W 062°46'414.9
2018-Jan-09 15:54N 16°16' W 062°42'614.6
2018-Jan-09 15:31N 16°19' W 062°37'1114.3
2018-Jan-09 14:43N 16°23' W 062°26'414.6
2018-Jan-09 14:28N 16°24' W 062°22'714.3
2018-Jan-09 14:00N 16°27' W 062°16'714.2
2018-Jan-09 13:31N 16°29' W 062°09'713.7
2018-Jan-09 13:00N 16°32' W 062°02'713.7
2018-Jan-09 12:30N 16°34' W 061°56'713.6
2018-Jan-09 12:00N 16°37' W 061°49'713.5
2018-Jan-09 11:30N 16°39' W 061°43'713.5
2018-Jan-09 11:00N 16°42' W 061°36'713.6
2018-Jan-09 10:30N 16°46' W 061°30'713.7
2018-Jan-09 10:00N 16°50' W 061°25'713.7
2018-Jan-09 09:30N 16°55' W 061°19'713.7
2018-Jan-09 09:00N 16°59' W 061°13'713.7
2018-Jan-09 08:30N 17°03' W 061°08'713.9
2018-Jan-09 08:00N 17°07' W 061°02'  
2018-Jan-03 03:06N 37°13' W 030°19'113.2
2018-Jan-03 03:00N 37°14' W 030°18'1113.5
2018-Jan-03 02:12N 37°20' W 030°06'613.8
2018-Jan-03 01:44N 37°23' W 029°60'413.9
2018-Jan-03 01:24N 37°26' W 029°55'513.6
2018-Jan-03 01:00N 37°29' W 029°49'713.8
2018-Jan-03 00:30N 37°33' W 029°42'713.4
2018-Jan-03 00:00N 37°37' W 029°36'713.5
2018-Jan-02 23:30N 37°41' W 029°29'713.4
2018-Jan-02 23:00N 37°45' W 029°22'713.2
2018-Jan-02 22:30N 37°49' W 029°15'613.0
2018-Jan-02 22:01N 37°53' W 029°08'713.6
2018-Jan-02 21:31N 37°57' W 029°01'713.9
2018-Jan-02 21:00N 38°01' W 028°54'713.6
2018-Jan-02 20:30N 38°05' W 028°47'713.5
2018-Jan-02 20:00N 38°08' W 028°40'713.7
2018-Jan-02 19:30N 38°11' W 028°32'713.7
2018-Jan-02 19:00N 38°15' W 028°24'713.8
2018-Jan-02 18:30N 38°17' W 028°16'713.8
2018-Jan-02 18:00N 38°19' W 028°08'714.0
2018-Jan-02 17:30N 38°21' W 027°59'714.1
2018-Jan-02 17:00N 38°23' W 027°51'713.9
2018-Jan-02 16:31N 38°25' W 027°42'714.0
2018-Jan-02 16:00N 38°26' W 027°33'713.8
2018-Jan-02 15:30N 38°28' W 027°25'713.7
2018-Jan-02 15:00N 38°29' W 027°16'713.4
2018-Jan-02 14:30N 38°31' W 027°08'713.3
2018-Jan-02 14:01N 38°32' W 026°59'713.0
2018-Jan-02 13:30N 38°34' W 026°51'713.2
2018-Jan-02 12:59N 38°36' W 026°43'613.4
2018-Jan-02 12:30N 38°38' W 026°35'713.2
2018-Jan-02 12:01N 38°40' W 026°27'713.5
2018-Jan-02 11:30N 38°42' W 026°19'814.0
2018-Jan-02 10:55N 38°44' W 026°09'613.7
2018-Jan-02 10:30N 38°45' W 026°02'713.4
2018-Jan-02 10:00N 38°47' W 025°53'613.1
2018-Jan-02 09:31N 38°49' W 025°45'1312.9
2018-Jan-02 08:31N 38°52' W 025°29'813.1
2018-Jan-02 07:53N 38°55' W 025°19'  

Dump ship's entire track history